Grand Portage, Minnesota
Current Conditions -  °F | °C
As of 1:00 PM on Friday 28 Nov 2014 (Local Time) from CYQT Reporting Station
Overcast Overcast  
Wind Chill: 14°   Ceiling: 25000
Heat Index: 14°   Visibility: 20mi
Dew Point:   Wind: 0mph
Humidity: 57%   Direction: NA
Pressure: 30.04"   Gusts: NA
Location:  47.96°N, 89.68°W
Report Text: CYQT 281900Z 00000KT 20SM FEW015 OVC250 M10/M17 A3004 RMK SC1CI7 SLP192
Loading
Personal Weather Stations






























Interactive Weather Map New forecast layout! Learn more

10-Day Weather Forecast

Advertisements
Track Severe Weather on mobile